createdAt,value
2018-08-30T08:23:30.351Z,101284.22
2018-08-30T08:25:59.289Z,101270.39
2018-08-30T08:28:28.009Z,101283.45
2018-08-30T08:30:56.614Z,101281.63
2018-08-30T08:33:25.204Z,101278.41
2018-08-30T08:35:53.865Z,101282.52
2018-08-30T08:38:22.461Z,101286.06
2018-08-30T08:40:51.095Z,101281.20
2018-08-30T08:43:19.874Z,101286.09
2018-08-30T08:45:48.550Z,101285.82
2018-08-30T08:48:17.195Z,101285.52
2018-08-30T08:50:46.146Z,101292.59
2018-08-30T08:53:14.828Z,101286.82
2018-08-30T08:55:43.593Z,101286.77
2018-08-30T08:58:12.223Z,101286.16
2018-08-30T09:00:40.837Z,101287.52
2018-08-30T09:03:09.506Z,101239.80
2018-08-30T09:05:38.202Z,101291.14
2018-08-30T09:08:06.907Z,101295.81
2018-08-30T09:10:35.549Z,101299.61
2018-08-30T09:13:04.144Z,101303.91
2018-08-30T09:15:33.101Z,101307.43
2018-08-30T09:18:01.772Z,101304.14
2018-08-30T09:20:30.420Z,101304.40
2018-08-30T09:22:59.214Z,101309.23
2018-08-30T09:25:27.842Z,101311.22
2018-08-30T09:27:56.872Z,101309.41
2018-08-30T09:30:25.472Z,101305.91
2018-08-30T09:32:54.191Z,101308.37
2018-08-30T09:35:23.205Z,101314.32
2018-08-30T09:37:51.834Z,101318.63
2018-08-30T09:40:20.444Z,101322.14
2018-08-30T09:42:49.119Z,101319.91
2018-08-30T09:45:17.758Z,101328.84
2018-08-30T09:47:46.421Z,101330.50
2018-08-30T09:50:15.134Z,101329.16
2018-08-30T09:52:43.889Z,101339.56
2018-08-30T09:55:12.500Z,101341.52
2018-08-30T09:57:41.215Z,101337.98
2018-08-30T10:00:13.740Z,101342.34
2018-08-30T10:02:47.689Z,101349.65
2018-08-30T10:05:16.340Z,101345.27
2018-08-30T10:07:45.083Z,101342.98
2018-08-30T10:10:13.686Z,101348.70
2018-08-30T10:12:42.334Z,101347.36
2018-08-30T10:15:11.063Z,101351.43
2018-08-30T10:17:39.746Z,101354.97
2018-08-30T10:20:08.420Z,101352.80
2018-08-30T10:22:37.088Z,101361.53
2018-08-30T10:25:05.966Z,101289.73
2018-08-30T10:27:34.641Z,101359.87
2018-08-30T10:30:03.370Z,101352.47
2018-08-30T10:32:32.178Z,101361.83
2018-08-30T10:35:00.755Z,101361.06
2018-08-30T10:37:29.360Z,101368.20
2018-08-30T10:39:57.981Z,101376.92
2018-08-30T10:42:26.749Z,101371.21
2018-08-30T10:44:55.425Z,101374.81
2018-08-30T10:47:24.198Z,101377.81
2018-08-30T10:49:52.975Z,101386.26
2018-08-30T10:52:21.565Z,101377.59
2018-08-30T10:54:50.262Z,101382.80
2018-08-30T10:57:18.880Z,101391.22
2018-08-30T10:59:47.513Z,101386.01
2018-08-30T11:02:16.247Z,101392.02
2018-08-30T11:04:45.037Z,101397.75
2018-08-30T11:07:13.707Z,101400.74
2018-08-30T11:09:42.356Z,101396.92
2018-08-30T11:12:11.033Z,101404.31
2018-08-30T11:14:39.663Z,101406.75
2018-08-30T11:17:08.322Z,101407.81
2018-08-30T11:19:36.959Z,101411.09
2018-08-30T11:22:05.541Z,101415.94
2018-08-30T11:24:34.209Z,101422.23
2018-08-30T11:27:02.787Z,101436.34
2018-08-30T11:29:31.501Z,101424.97
2018-08-30T11:32:00.125Z,101431.22
2018-08-30T11:34:28.803Z,101434.20
2018-08-30T11:36:57.604Z,101435.52
2018-08-30T11:39:26.556Z,101436.33
2018-08-30T11:41:56.337Z,101444.81
2018-08-30T11:44:25.019Z,101448.19
2018-08-30T11:46:53.700Z,101441.17
2018-08-30T11:49:22.427Z,101453.48
2018-08-30T11:51:51.157Z,101443.13
2018-08-30T11:54:19.891Z,101453.77
2018-08-30T11:56:48.431Z,101445.06
2018-08-30T11:59:17.186Z,101456.26
2018-08-30T12:01:45.770Z,101460.06
2018-08-30T12:04:14.609Z,101461.41
2018-08-30T12:06:43.234Z,101420.75
2018-08-30T12:09:12.071Z,101460.75
2018-08-30T12:11:41.419Z,101466.34
2018-08-30T12:14:10.246Z,101475.84
2018-08-30T12:16:39.094Z,101492.05
2018-08-30T12:19:07.616Z,101495.83
2018-08-30T12:21:36.127Z,101496.09
2018-08-30T12:24:04.711Z,101504.44
2018-08-30T12:26:33.284Z,101504.82
2018-08-30T12:29:01.899Z,101510.05
2018-08-30T12:31:30.545Z,101509.32
2018-08-30T12:33:59.117Z,101512.61
2018-08-30T12:36:27.626Z,101510.64
2018-08-30T12:38:56.219Z,101514.98
2018-08-30T12:41:24.815Z,101514.48
2018-08-30T12:43:53.436Z,101521.56
2018-08-30T12:46:21.898Z,101525.97
2018-08-30T12:48:50.474Z,101533.41
2018-08-30T12:51:19.048Z,101531.61
2018-08-30T12:53:47.518Z,101536.80
2018-08-30T12:56:16.137Z,101542.09
2018-08-30T12:58:45.136Z,101536.70
2018-08-30T13:01:13.676Z,101545.37
2018-08-30T13:03:42.126Z,101547.67
2018-08-30T13:06:10.820Z,101554.17
2018-08-30T13:08:39.480Z,101557.75
2018-08-30T13:11:08.311Z,101551.59
2018-08-30T13:13:36.826Z,101555.73
2018-08-30T13:16:05.402Z,101559.04
2018-08-30T13:18:33.987Z,101569.97
2018-08-30T13:21:02.568Z,101568.53
2018-08-30T13:23:31.047Z,101567.58
2018-08-30T13:25:59.660Z,101564.54
2018-08-30T13:28:28.142Z,101576.05
2018-08-30T13:30:56.691Z,101576.03
2018-08-30T13:33:25.483Z,101580.14
2018-08-30T13:35:53.979Z,101579.28
2018-08-30T13:38:22.643Z,101584.09
2018-08-30T13:40:51.121Z,101578.02
2018-08-30T13:43:19.687Z,101588.12
2018-08-30T13:45:48.003Z,101589.45
2018-08-30T13:48:16.349Z,101589.72
2018-08-30T13:50:45.151Z,101592.46
2018-08-30T13:53:13.849Z,101598.23
2018-08-30T13:55:42.506Z,101590.17
2018-08-30T13:58:10.698Z,101592.63
2018-08-30T14:00:39.738Z,101599.98
2018-08-30T14:03:08.044Z,101594.83
2018-08-30T14:05:36.510Z,101601.20
2018-08-30T14:08:05.054Z,101598.85
2018-08-30T14:10:33.715Z,101607.97
2018-08-30T14:13:02.078Z,101610.58
2018-08-30T14:15:30.680Z,101616.81
2018-08-30T14:17:58.921Z,101623.35
2018-08-30T14:20:27.416Z,101625.27
2018-08-30T14:22:56.201Z,101627.07
2018-08-30T14:25:24.760Z,101626.00
2018-08-30T14:27:53.302Z,101638.62
2018-08-30T14:30:21.877Z,101629.36
2018-08-30T14:32:50.461Z,101640.48
2018-08-30T14:35:18.958Z,101635.49
2018-08-30T14:37:47.436Z,101646.42
2018-08-30T14:40:16.131Z,101638.42
2018-08-30T14:42:44.553Z,101644.94
2018-08-30T14:45:13.295Z,101651.16
2018-08-30T14:47:42.155Z,101653.51
2018-08-30T14:50:10.396Z,101649.34
2018-08-30T14:52:39.154Z,101644.66
2018-08-30T14:55:07.966Z,101660.87
2018-08-30T14:57:36.640Z,101664.67
2018-08-30T15:00:05.342Z,101669.64
2018-08-30T15:02:33.768Z,101666.70
2018-08-30T15:05:02.299Z,101673.00
2018-08-30T15:07:30.856Z,101674.68
2018-08-30T15:09:59.459Z,101678.53
2018-08-30T15:12:28.104Z,101681.77
2018-08-30T15:14:56.689Z,101683.38
2018-08-30T15:17:25.278Z,101675.00
2018-08-30T15:19:53.812Z,101676.53
2018-08-30T15:22:22.420Z,101686.86
2018-08-30T15:24:50.964Z,101680.06
2018-08-30T15:27:19.720Z,101682.23
2018-08-30T15:29:48.077Z,101687.14
2018-08-30T15:32:16.659Z,101694.03
2018-08-30T15:34:45.178Z,101685.13
2018-08-30T15:37:13.728Z,101697.41
2018-08-30T15:39:42.331Z,101695.16
2018-08-30T15:42:11.097Z,101693.05
2018-08-30T15:44:39.564Z,101702.73
2018-08-30T15:47:08.140Z,101703.74
2018-08-30T15:49:36.777Z,101700.19
2018-08-30T15:52:05.424Z,101705.16
2018-08-30T15:54:33.958Z,101717.69
2018-08-30T15:57:02.633Z,101713.55
2018-08-30T15:59:31.160Z,101712.13
2018-08-30T16:01:59.732Z,101707.18
2018-08-30T16:04:28.248Z,101713.72
2018-08-30T16:06:57.804Z,101706.62
2018-08-30T16:09:26.406Z,101701.22
2018-08-30T16:11:54.955Z,101709.38
2018-08-30T16:14:23.520Z,101705.78
2018-08-30T16:16:52.221Z,101706.89
2018-08-30T16:19:20.914Z,101712.58
2018-08-30T16:21:49.558Z,101711.84
2018-08-30T16:24:18.240Z,101709.28
2018-08-30T16:26:46.930Z,101713.64
2018-08-30T16:29:15.586Z,101715.48
2018-08-30T16:31:44.273Z,101714.06
2018-08-30T16:34:12.832Z,101718.72
2018-08-30T16:36:41.445Z,101720.98
2018-08-30T16:39:11.221Z,101724.91
2018-08-30T16:41:39.951Z,101723.65
2018-08-30T16:44:09.599Z,101728.44
2018-08-30T16:46:40.279Z,101734.87
2018-08-30T16:49:09.092Z,101729.41
2018-08-30T16:51:38.791Z,101736.39
2018-08-30T16:54:07.539Z,101736.72
2018-08-30T16:56:39.073Z,101740.28
2018-08-30T16:59:07.758Z,101742.48
2018-08-30T17:01:38.337Z,101751.44
2018-08-30T17:04:11.297Z,101752.61
2018-08-30T17:06:40.190Z,101750.19
2018-08-30T17:09:10.012Z,101757.66
2018-08-30T17:11:38.712Z,101758.47
2018-08-30T17:14:07.354Z,101753.88
2018-08-30T17:16:35.940Z,101755.52
2018-08-30T17:19:16.372Z,101755.11
2018-08-30T17:21:45.082Z,101759.98
2018-08-30T17:24:13.578Z,101752.92
2018-08-30T17:26:43.188Z,101763.47
2018-08-30T17:29:11.752Z,101767.80
2018-08-30T17:31:40.320Z,101761.38
2018-08-30T17:34:08.851Z,101771.11
2018-08-30T17:36:37.403Z,101770.77
2018-08-30T17:39:07.280Z,101765.78
2018-08-30T17:41:35.845Z,101766.58
2018-08-30T17:44:05.977Z,101769.39
2018-08-30T17:46:34.546Z,101773.94
2018-08-30T17:49:03.392Z,101781.80
2018-08-30T17:51:33.244Z,101778.06
2018-08-30T17:54:01.925Z,101779.80
2018-08-30T17:56:30.704Z,101774.02
2018-08-30T17:59:05.967Z,101782.63
2018-08-30T18:01:35.299Z,101790.42
2018-08-30T18:55:28.200Z,101817.57
2018-08-30T20:11:10.134Z,101886.77
2018-08-30T20:13:38.950Z,101888.73
2018-08-30T20:16:07.509Z,101887.23
2018-08-30T20:18:36.109Z,101890.13
2018-08-30T20:21:04.841Z,101892.48
2018-08-30T20:23:33.398Z,101893.84
2018-08-30T20:26:01.972Z,101894.73
2018-08-30T20:28:30.649Z,101894.59
2018-08-30T20:30:59.491Z,101893.89
2018-08-30T20:33:28.162Z,101896.39
2018-08-30T20:35:56.872Z,101890.91
2018-08-30T20:38:25.455Z,101896.24
2018-08-30T20:40:53.991Z,101892.92
2018-08-30T20:43:23.036Z,101900.38
2018-08-30T20:45:51.524Z,101895.40
2018-08-30T20:48:20.067Z,101901.34
2018-08-30T20:50:48.667Z,101900.06
2018-08-30T20:53:17.232Z,101904.94
2018-08-30T20:55:45.873Z,101905.39
2018-08-30T20:58:14.443Z,101904.31
2018-08-30T21:00:43.000Z,101904.52
2018-08-30T21:03:11.638Z,101899.53
2018-08-30T21:05:40.255Z,101902.05
2018-08-30T21:08:08.925Z,101903.47
2018-08-30T21:10:37.587Z,101905.47
2018-08-30T21:13:06.173Z,101907.59
2018-08-30T21:15:34.724Z,101904.34
2018-08-30T21:18:03.686Z,101902.19
2018-08-30T21:20:32.191Z,101903.06
2018-08-30T21:23:00.778Z,101904.42
2018-08-30T21:25:31.558Z,101904.25
2018-08-30T21:28:00.014Z,101908.61
2018-08-30T21:30:28.589Z,101902.91
2018-08-30T21:32:57.095Z,101914.09
2018-08-30T21:35:25.618Z,101914.91
2018-08-30T21:37:54.256Z,101920.94
2018-08-30T21:40:22.764Z,101919.59
2018-08-30T21:42:51.315Z,101917.70
2018-08-30T21:45:19.866Z,101921.36
2018-08-30T21:47:48.384Z,101920.16
2018-08-30T21:50:16.888Z,101922.41
2018-08-30T21:52:45.396Z,101924.58
2018-08-30T21:55:13.984Z,101932.52
2018-08-30T21:57:42.560Z,101927.25
2018-08-30T22:00:11.173Z,101930.99
2018-08-30T22:02:39.960Z,101927.03
2018-08-30T22:05:08.431Z,101928.52
2018-08-30T22:07:37.009Z,101931.59
2018-08-30T22:10:06.161Z,101932.23
2018-08-30T22:12:34.694Z,101932.85
2018-08-30T22:15:03.243Z,101927.28
2018-08-30T22:17:31.712Z,101921.70
2018-08-30T22:20:00.304Z,101928.28
2018-08-30T22:22:28.870Z,101921.81
2018-08-30T22:24:57.553Z,101926.09
2018-08-30T22:27:26.088Z,101928.75
2018-08-30T22:29:54.625Z,101930.86
2018-08-30T22:32:23.284Z,101924.66
2018-08-30T22:34:51.755Z,101923.67
2018-08-30T22:37:20.269Z,101921.83
2018-08-30T22:39:48.800Z,101920.30
2018-08-30T22:42:17.344Z,101918.64
2018-08-30T22:44:45.880Z,101921.87
2018-08-30T22:47:14.390Z,101919.67
2018-08-30T22:49:42.956Z,101925.20
2018-08-30T22:52:11.649Z,101923.86
2018-08-30T22:54:40.257Z,101930.82
2018-08-30T22:57:08.813Z,101922.41
2018-08-30T22:59:37.415Z,101920.66
2018-08-30T23:02:05.995Z,101917.47
2018-08-30T23:04:34.548Z,101921.73
2018-08-30T23:07:03.448Z,101916.93
2018-08-30T23:09:31.989Z,101916.47
2018-08-30T23:12:00.502Z,101916.91
2018-08-30T23:14:29.044Z,101915.59
2018-08-30T23:16:58.060Z,101919.42
2018-08-30T23:19:26.592Z,101912.81
2018-08-30T23:21:55.124Z,101911.98
2018-08-30T23:24:23.603Z,101908.50
2018-08-30T23:26:52.135Z,101906.66
2018-08-30T23:29:20.629Z,101903.24
2018-08-30T23:31:49.161Z,101906.00
2018-08-30T23:34:17.708Z,101903.14
2018-08-30T23:36:46.181Z,101903.16
2018-08-30T23:39:15.142Z,101902.03
2018-08-30T23:41:43.671Z,101905.04
2018-08-30T23:44:12.217Z,101905.35
2018-08-30T23:46:40.781Z,101904.09
2018-08-30T23:49:09.244Z,101911.89
2018-08-30T23:51:37.816Z,101910.43
2018-08-30T23:54:07.038Z,101913.95
2018-08-30T23:56:35.548Z,101906.09
2018-08-30T23:59:15.163Z,101912.73
